createdAt,value
2022-11-24T00:01:20.064Z,6.68
2022-11-24T00:03:55.843Z,6.60
2022-11-24T00:06:24.798Z,6.32
2022-11-24T00:08:53.908Z,7.22
2022-11-24T00:11:24.818Z,6.63
2022-11-24T00:13:53.668Z,6.82
2022-11-24T00:16:23.682Z,6.93
2022-11-24T00:18:55.434Z,7.07
2022-11-24T00:21:24.622Z,7.15
2022-11-24T00:23:53.442Z,7.28
2022-11-24T00:26:23.903Z,7.15
2022-11-24T00:28:53.894Z,7.60
2022-11-24T00:31:23.822Z,7.70
2022-11-24T00:33:54.984Z,7.50
2022-11-24T00:36:25.486Z,7.27
2022-11-24T00:38:55.553Z,8.30
2022-11-24T00:41:23.891Z,8.30
2022-11-24T00:43:52.132Z,7.68
2022-11-24T00:46:20.960Z,7.57
2022-11-24T00:48:49.496Z,8.02
2022-11-24T00:51:20.564Z,7.28
2022-11-24T00:53:48.841Z,8.70
2022-11-24T00:56:17.268Z,8.38
2022-11-24T00:58:45.563Z,8.40
2022-11-24T01:01:15.677Z,8.27
2022-11-24T01:03:44.597Z,8.60
2022-11-24T01:06:14.805Z,7.93
2022-11-24T01:08:44.916Z,8.63
2022-11-24T01:11:15.189Z,8.13
2022-11-24T01:13:44.902Z,6.57
2022-11-24T01:16:20.987Z,7.70
2022-11-24T01:18:49.796Z,7.93
2022-11-24T01:21:18.652Z,6.93
2022-11-24T01:23:48.416Z,7.63
2022-11-24T01:26:18.771Z,7.25
2022-11-24T01:28:47.838Z,7.68
2022-11-24T01:31:17.275Z,7.03
2022-11-24T01:33:45.506Z,7.63
2022-11-24T01:36:13.938Z,7.10
2022-11-24T01:38:42.282Z,6.45
2022-11-24T01:41:14.653Z,7.57
2022-11-24T01:43:43.981Z,7.50
2022-11-24T01:46:19.301Z,7.13
2022-11-24T01:48:52.850Z,7.70
2022-11-24T01:51:24.924Z,7.70
2022-11-24T01:53:56.255Z,7.22
2022-11-24T01:56:27.913Z,7.32
2022-11-24T01:59:00.234Z,8.32
2022-11-24T02:01:29.412Z,8.35
2022-11-24T02:03:58.438Z,7.35
2022-11-24T02:06:30.456Z,7.57
2022-11-24T02:45:12.283Z,5.88
2022-11-24T02:47:40.487Z,6.55
2022-11-24T02:50:09.126Z,6.07
2022-11-24T02:52:37.313Z,5.78
2022-11-24T02:55:06.117Z,5.80
2022-11-24T02:57:34.354Z,5.85
2022-11-24T03:00:02.645Z,6.68
2022-11-24T03:02:32.269Z,5.57
2022-11-24T03:05:00.515Z,5.88
2022-11-24T03:07:28.725Z,6.47
2022-11-24T03:09:56.997Z,6.80
2022-11-24T03:12:25.255Z,6.57
2022-11-24T03:14:53.424Z,7.10
2022-11-24T03:17:21.589Z,5.68
2022-11-24T03:19:51.168Z,6.15
2022-11-24T03:22:19.337Z,6.13
2022-11-24T03:24:47.623Z,5.97
2022-11-24T03:27:15.860Z,5.97
2022-11-24T03:29:44.036Z,6.10
2022-11-24T03:32:12.217Z,6.13
2022-11-24T03:34:40.412Z,6.68
2022-11-24T03:37:10.532Z,6.03
2022-11-24T03:39:38.689Z,7.35
2022-11-24T03:42:06.935Z,6.13
2022-11-24T03:44:35.357Z,6.35
2022-11-24T03:47:03.657Z,6.22
2022-11-24T03:49:32.028Z,6.28
2022-11-24T03:52:05.127Z,6.13
2022-11-24T03:54:37.298Z,7.63
2022-11-24T03:57:05.542Z,6.28
2022-11-24T04:06:55.310Z,6.07
2022-11-24T04:09:23.549Z,5.88
2022-11-24T04:12:10.350Z,6.10
2022-11-24T04:14:38.502Z,5.72
2022-11-24T04:17:06.670Z,6.60
2022-11-24T04:19:34.874Z,6.38
2022-11-24T04:22:03.130Z,6.30
2022-11-24T04:24:31.707Z,6.50
2022-11-24T04:27:01.417Z,6.28
2022-11-24T04:29:29.612Z,6.57
2022-11-24T04:31:57.861Z,5.95
2022-11-24T04:34:26.071Z,6.90
2022-11-24T04:36:54.249Z,5.97
2022-11-24T04:39:26.523Z,5.55
2022-11-24T04:41:57.124Z,6.15
2022-11-24T04:44:26.673Z,6.30
2022-11-24T04:46:55.160Z,6.63
2022-11-24T04:49:23.365Z,6.20
2022-11-24T04:51:51.517Z,5.68
2022-11-24T04:54:19.759Z,5.70
2022-11-24T04:56:52.712Z,6.82
2022-11-24T04:59:21.222Z,7.40
2022-11-24T05:01:50.859Z,7.00
2022-11-24T05:04:20.428Z,6.15
2022-11-24T05:06:49.069Z,6.05
2022-11-24T05:09:18.312Z,6.10
2022-11-24T05:11:46.494Z,6.07
2022-11-24T05:14:14.689Z,5.50
2022-11-24T05:16:42.920Z,6.43
2022-11-24T05:19:13.039Z,6.22
2022-11-24T05:21:41.275Z,7.45
2022-11-24T05:24:09.786Z,6.47
2022-11-24T05:26:38.054Z,6.18
2022-11-24T05:29:06.219Z,6.07
2022-11-24T05:31:34.522Z,6.55
2022-11-24T05:34:02.760Z,5.53
2022-11-24T05:36:49.442Z,5.78
2022-11-24T05:39:17.626Z,6.00
2022-11-24T05:41:45.962Z,6.22
2022-11-24T05:44:14.309Z,5.70
2022-11-24T05:46:42.637Z,13.13
2022-11-24T05:49:10.973Z,9.63
2022-11-24T05:51:40.549Z,7.07
2022-11-24T05:54:08.717Z,5.55
2022-11-24T05:56:36.890Z,6.05
2022-11-24T05:59:09.655Z,5.40
2022-11-24T06:01:38.341Z,5.22
2022-11-24T06:04:06.618Z,5.10
2022-11-24T06:06:34.800Z,5.00
2022-11-24T06:09:04.397Z,5.00
2022-11-24T06:11:32.599Z,5.45
2022-11-24T06:14:00.769Z,5.18
2022-11-24T06:16:29.253Z,4.88
2022-11-24T06:18:57.766Z,5.10
2022-11-24T06:21:25.953Z,5.18
2022-11-24T06:23:54.144Z,5.45
2022-11-24T06:26:23.687Z,4.68
2022-11-24T06:28:51.860Z,5.05
2022-11-24T06:31:20.085Z,4.53
2022-11-24T06:33:48.346Z,4.88
2022-11-24T06:36:16.645Z,4.57
2022-11-24T06:38:44.862Z,4.65
2022-11-24T06:41:14.702Z,5.18
2022-11-24T06:43:44.292Z,4.60
2022-11-24T06:46:13.241Z,4.70
2022-11-24T06:48:41.448Z,4.43
2022-11-24T06:51:12.803Z,4.65
2022-11-24T06:53:41.954Z,5.13
2022-11-24T06:56:16.329Z,4.28
2022-11-24T06:58:47.464Z,4.75
2022-11-24T07:01:17.124Z,4.45
2022-11-24T07:03:45.509Z,4.47
2022-11-24T07:06:13.705Z,3.95
2022-11-24T07:08:41.945Z,3.95
2022-11-24T07:11:12.575Z,3.95
2022-11-24T07:13:40.722Z,5.15
2022-11-24T07:16:15.631Z,4.20
2022-11-24T07:18:44.421Z,4.57
2022-11-24T07:21:13.274Z,4.50
2022-11-24T07:23:42.278Z,4.00
2022-11-24T07:26:11.704Z,4.25
2022-11-24T07:28:40.339Z,3.35
2022-11-24T07:31:09.292Z,3.97
2022-11-24T07:33:39.210Z,4.00
2022-11-24T07:36:09.069Z,4.07
2022-11-24T07:38:37.449Z,3.92
2022-11-24T07:41:07.211Z,3.95
2022-11-24T07:43:36.792Z,3.83
2022-11-24T07:46:06.028Z,4.47
2022-11-24T07:48:34.615Z,3.95
2022-11-24T07:51:05.519Z,5.07
2022-11-24T07:53:34.003Z,3.65
2022-11-24T07:56:03.483Z,4.40
2022-11-24T07:58:33.446Z,3.55
2022-11-24T08:01:01.836Z,4.13
2022-11-24T08:03:30.016Z,4.13
2022-11-24T08:08:48.929Z,3.08
2022-11-24T08:11:18.419Z,3.88
2022-11-24T08:13:46.887Z,3.58
2022-11-24T08:16:17.108Z,3.65
2022-11-24T08:18:49.734Z,3.38
2022-11-24T08:21:17.967Z,4.35
2022-11-24T08:23:46.148Z,3.55
2022-11-24T08:26:18.868Z,3.95
2022-11-24T08:28:48.536Z,3.78
2022-11-24T08:31:19.651Z,3.85
2022-11-24T08:33:48.066Z,4.10
2022-11-24T08:36:18.512Z,4.07
2022-11-24T08:38:48.979Z,4.07
2022-11-24T08:41:18.927Z,4.18
2022-11-24T08:43:47.289Z,3.80
2022-11-24T08:46:18.462Z,4.60
2022-11-24T08:48:50.136Z,3.63
2022-11-24T08:51:20.860Z,4.20
2022-11-24T08:53:49.201Z,6.00
2022-11-24T08:56:18.725Z,5.57
2022-11-24T08:58:46.991Z,4.38
2022-11-24T09:01:17.697Z,3.75
2022-11-24T09:03:50.746Z,4.45
2022-11-24T09:06:22.912Z,4.85
2022-11-24T09:11:21.666Z,3.53
2022-11-24T09:13:50.110Z,4.10
2022-11-24T09:16:21.195Z,3.97
2022-11-24T09:18:49.819Z,4.27
2022-11-24T09:21:20.258Z,3.42
2022-11-24T09:23:50.654Z,3.83
2022-11-24T09:26:23.014Z,3.13
2022-11-24T09:28:54.463Z,4.15
2022-11-24T09:31:24.687Z,3.85
2022-11-24T09:33:53.780Z,3.63
2022-11-24T09:36:22.841Z,3.10
2022-11-24T09:38:51.123Z,3.17
2022-11-24T09:41:45.692Z,4.15
2022-11-24T09:44:46.030Z,3.03
2022-11-24T09:47:21.886Z,3.42
2022-11-24T09:49:55.704Z,3.30
2022-11-24T09:52:39.276Z,2.83
2022-11-24T09:55:39.721Z,3.22
2022-11-24T09:58:22.972Z,3.50
2022-11-24T10:00:53.692Z,2.55
2022-11-24T10:03:28.890Z,2.40
2022-11-24T10:05:57.234Z,2.58
2022-11-24T10:08:46.787Z,2.05
2022-11-24T10:11:17.771Z,1.88
2022-11-24T10:14:08.639Z,2.03
2022-11-24T10:16:47.550Z,1.92
2022-11-24T10:19:34.448Z,1.55
2022-11-24T10:22:19.750Z,1.38
2022-11-24T10:25:03.408Z,1.83
2022-11-24T10:27:36.969Z,1.92
2022-11-24T10:30:15.941Z,1.95
2022-11-24T10:32:48.251Z,1.85
2022-11-24T10:35:20.285Z,2.03
2022-11-24T10:37:58.035Z,1.80
2022-11-24T10:43:22.743Z,2.17
2022-11-24T10:45:52.415Z,2.00
2022-11-24T10:48:25.489Z,1.92
2022-11-24T10:50:55.305Z,1.83
2022-11-24T10:53:27.564Z,2.08
2022-11-24T10:56:00.452Z,2.08
2022-11-24T10:58:36.067Z,1.92
2022-11-24T11:01:27.671Z,1.83
2022-11-24T11:03:59.258Z,1.88
2022-11-24T11:06:28.849Z,1.30
2022-11-24T11:09:19.678Z,1.50
2022-11-24T11:11:48.909Z,1.50
2022-11-24T11:14:31.334Z,1.60
2022-11-24T11:17:01.099Z,1.40
2022-11-24T11:19:57.008Z,1.67
2022-11-24T11:22:28.172Z,2.55
2022-11-24T11:25:07.191Z,2.35
2022-11-24T11:27:35.425Z,2.28
2022-11-24T11:36:12.625Z,1.30
2022-11-24T11:38:42.929Z,2.85
2022-11-24T11:41:21.730Z,1.80
2022-11-24T11:43:57.792Z,1.88
2022-11-24T11:46:27.713Z,1.60
2022-11-24T11:48:57.506Z,2.00
2022-11-24T11:51:35.623Z,1.70
2022-11-24T11:54:10.599Z,1.73
2022-11-24T11:56:45.190Z,3.03
2022-11-24T11:59:37.415Z,1.77
2022-11-24T12:02:30.479Z,1.77
2022-11-24T12:05:03.218Z,1.35
2022-11-24T12:07:48.657Z,1.73
2022-11-24T12:10:27.368Z,1.58
2022-11-24T12:13:09.332Z,1.33
2022-11-24T12:15:41.952Z,1.25
2022-11-24T12:18:48.355Z,1.23
2022-11-24T12:21:24.571Z,1.30
2022-11-24T12:24:05.730Z,1.75
2022-11-24T12:26:43.431Z,1.98
2022-11-24T12:29:40.590Z,2.28
2022-11-24T12:32:17.845Z,1.80
2022-11-24T12:34:54.827Z,1.23
2022-11-24T12:37:38.197Z,1.30
2022-11-24T12:40:15.761Z,1.20
2022-11-24T12:42:56.274Z,1.45
2022-11-24T12:45:33.570Z,2.50
2022-11-24T12:48:32.256Z,2.20
2022-11-24T12:51:01.469Z,1.83
2022-11-24T12:53:35.777Z,1.55
2022-11-24T12:56:16.032Z,1.85
2022-11-24T12:58:52.166Z,1.20
2022-11-24T13:01:34.601Z,1.38
2022-11-24T13:04:17.248Z,1.10
2022-11-24T13:06:52.940Z,1.73
2022-11-24T13:09:22.784Z,1.13
2022-11-24T13:11:52.951Z,1.10
2022-11-24T13:14:23.638Z,2.53
2022-11-24T13:19:43.828Z,1.13
2022-11-24T13:22:17.070Z,1.15
2022-11-24T13:24:46.691Z,1.83
2022-11-24T13:27:41.973Z,1.00
2022-11-24T13:30:58.505Z,1.08
2022-11-24T13:33:37.303Z,1.38
2022-11-24T13:36:33.878Z,1.48
2022-11-24T13:39:03.663Z,1.30
2022-11-24T13:42:07.737Z,1.48
2022-11-24T13:44:53.909Z,1.08
2022-11-24T13:47:40.621Z,1.02
2022-11-24T13:50:25.324Z,1.17
2022-11-24T13:53:01.849Z,1.45
2022-11-24T13:55:34.780Z,1.10
2022-11-24T13:58:22.678Z,1.20
2022-11-24T14:01:08.252Z,1.40
2022-11-24T14:03:39.949Z,1.25
2022-11-24T14:06:15.297Z,1.20
2022-11-24T14:08:46.492Z,1.15
2022-11-24T14:11:17.279Z,0.90
2022-11-24T14:13:45.965Z,3.55
2022-11-24T14:16:19.181Z,3.67
2022-11-24T14:18:48.714Z,1.88
2022-11-24T14:21:28.075Z,1.60
2022-11-24T14:23:59.104Z,1.67
2022-11-24T14:26:33.202Z,2.50
2022-11-24T14:29:07.376Z,1.20
2022-11-24T14:31:37.241Z,1.40
2022-11-24T14:34:15.847Z,2.00
2022-11-24T14:36:45.683Z,2.65
2022-11-24T14:39:15.694Z,2.30
2022-11-24T14:41:51.434Z,2.47
2022-11-24T14:44:23.898Z,1.95
2022-11-24T14:47:03.203Z,1.33
2022-11-24T14:49:32.556Z,2.33
2022-11-24T14:52:04.338Z,2.92
2022-11-24T14:54:33.205Z,3.05
2022-11-24T14:57:04.346Z,3.40
2022-11-24T14:59:36.073Z,3.88
2022-11-24T15:02:42.092Z,2.40
2022-11-24T15:05:10.934Z,1.83
2022-11-24T15:07:42.216Z,2.35
2022-11-24T15:10:34.099Z,3.57
2022-11-24T15:13:05.025Z,2.47
2022-11-24T15:15:36.871Z,2.72
2022-11-24T15:18:07.796Z,2.92
2022-11-24T15:20:41.698Z,2.13
2022-11-24T15:23:24.333Z,2.05
2022-11-24T15:25:53.515Z,1.85
2022-11-24T15:28:25.691Z,1.90
2022-11-24T15:30:54.577Z,1.90
2022-11-24T15:33:24.916Z,2.05
2022-11-24T15:35:53.182Z,2.47
2022-11-24T15:38:21.576Z,2.10
2022-11-24T15:40:51.643Z,2.63
2022-11-24T15:43:28.885Z,1.80
2022-11-24T15:45:57.234Z,2.10
2022-11-24T15:48:27.269Z,2.05
2022-11-24T15:50:57.319Z,2.83
2022-11-24T15:53:29.244Z,2.15
2022-11-24T15:58:26.150Z,1.98
2022-11-24T16:00:54.498Z,1.65
2022-11-24T16:06:16.717Z,1.40
2022-11-24T16:08:47.724Z,1.48
2022-11-24T16:11:15.952Z,1.58
2022-11-24T16:13:50.060Z,1.88
2022-11-24T16:16:20.908Z,1.75
2022-11-24T16:18:49.145Z,1.65
2022-11-24T16:21:18.749Z,2.10
2022-11-24T16:23:47.809Z,2.65
2022-11-24T16:26:16.061Z,1.67
2022-11-24T16:28:45.736Z,2.65
2022-11-24T16:31:15.815Z,3.80
2022-11-24T16:33:45.512Z,4.00
2022-11-24T16:36:14.284Z,3.85
2022-11-24T16:38:43.848Z,3.22
2022-11-24T16:41:12.499Z,2.60
2022-11-24T16:43:40.853Z,2.38
2022-11-24T16:46:18.985Z,2.67
2022-11-24T16:48:48.408Z,2.30
2022-11-24T16:51:18.009Z,2.38
2022-11-24T16:53:48.154Z,2.42
2022-11-24T16:56:17.585Z,2.22
2022-11-24T16:58:45.806Z,2.22
2022-11-24T17:01:15.148Z,2.15
2022-11-24T17:03:43.697Z,2.35
2022-11-24T17:06:15.792Z,2.20
2022-11-24T17:08:45.617Z,3.42
2022-11-24T17:11:16.662Z,5.72
2022-11-24T17:13:47.014Z,4.23
2022-11-24T17:16:17.129Z,3.28
2022-11-24T17:18:45.977Z,2.35
2022-11-24T17:21:15.247Z,2.95
2022-11-24T17:23:43.813Z,3.65
2022-11-24T17:26:15.221Z,4.80
2022-11-24T17:28:43.928Z,3.67
2022-11-24T17:31:18.844Z,2.70
2022-11-24T17:33:47.198Z,2.22
2022-11-24T17:36:15.404Z,2.95
2022-11-24T17:38:43.651Z,3.03
2022-11-24T17:41:12.082Z,3.50
2022-11-24T17:43:42.141Z,4.22
2022-11-24T17:46:11.745Z,8.95
2022-11-24T17:48:40.232Z,8.63
2022-11-24T17:51:12.722Z,9.65
2022-11-24T17:53:41.933Z,12.05
2022-11-24T17:56:13.875Z,9.88
2022-11-24T18:01:12.610Z,3.92
2022-11-24T18:03:41.476Z,3.20
2022-11-24T18:06:11.270Z,6.85
2022-11-24T18:08:41.180Z,8.10
2022-11-24T18:11:11.104Z,9.27
2022-11-24T18:16:30.436Z,8.65
2022-11-24T18:19:09.875Z,5.93
2022-11-24T18:21:39.065Z,13.57
2022-11-24T18:24:07.821Z,5.82
2022-11-24T18:26:36.049Z,5.55
2022-11-24T18:29:04.428Z,4.35
2022-11-24T18:31:35.689Z,4.75
2022-11-24T18:34:05.460Z,4.97
2022-11-24T18:36:34.566Z,4.93
2022-11-24T18:39:03.181Z,5.50
2022-11-24T18:41:31.838Z,6.60
2022-11-24T18:44:02.449Z,6.60
2022-11-24T18:46:30.757Z,4.35
2022-11-24T18:49:00.432Z,4.43
2022-11-24T18:51:30.129Z,3.58
2022-11-24T18:53:59.047Z,2.85
2022-11-24T18:56:27.915Z,3.17
2022-11-24T18:58:57.792Z,3.10
2022-11-24T19:01:27.977Z,3.03
2022-11-24T19:03:58.412Z,2.63
2022-11-24T19:06:32.007Z,4.20
2022-11-24T19:09:01.642Z,7.63
2022-11-24T19:11:32.424Z,10.57
2022-11-24T19:14:00.780Z,7.43
2022-11-24T19:16:29.014Z,6.40
2022-11-24T19:19:00.028Z,5.93
2022-11-24T19:21:31.464Z,4.90
2022-11-24T19:24:04.530Z,8.23
2022-11-24T19:26:34.993Z,5.30
2022-11-24T19:29:03.986Z,4.55
2022-11-24T19:31:32.534Z,4.88
2022-11-24T19:34:02.904Z,4.70
2022-11-24T19:36:33.060Z,4.10
2022-11-24T19:39:03.153Z,4.10
2022-11-24T19:41:32.502Z,4.90
2022-11-24T19:44:01.021Z,4.50
2022-11-24T19:46:30.668Z,4.35
2022-11-24T19:49:02.014Z,3.70
2022-11-24T19:51:33.878Z,3.45
2022-11-24T19:54:02.687Z,3.45
2022-11-24T19:56:32.248Z,4.05
2022-11-24T19:59:00.425Z,3.70
2022-11-24T20:01:30.935Z,3.42
2022-11-24T20:04:00.701Z,3.50
2022-11-24T20:06:30.401Z,4.65
2022-11-24T20:09:01.121Z,3.90
2022-11-24T20:11:30.034Z,3.78
2022-11-24T20:13:58.815Z,3.78
2022-11-24T20:16:29.669Z,4.20
2022-11-24T20:18:59.477Z,3.80
2022-11-24T20:21:31.180Z,5.25
2022-11-24T20:24:02.510Z,3.92
2022-11-24T20:26:33.550Z,4.80
2022-11-24T20:29:02.692Z,4.07
2022-11-24T20:31:33.789Z,4.80
2022-11-24T20:34:03.587Z,4.95
2022-11-24T20:36:33.481Z,4.55
2022-11-24T20:39:06.044Z,5.55
2022-11-24T20:41:36.290Z,4.95
2022-11-24T20:44:08.188Z,6.20
2022-11-24T20:49:06.627Z,5.43
2022-11-24T20:51:37.585Z,4.65
2022-11-24T20:54:09.148Z,5.15
2022-11-24T20:56:39.789Z,4.70
2022-11-24T20:59:08.355Z,4.13
2022-11-24T21:01:39.216Z,3.97
2022-11-24T21:04:09.420Z,2.80
2022-11-24T21:06:38.036Z,4.63
2022-11-24T21:09:08.432Z,3.25
2022-11-24T21:11:37.525Z,4.47
2022-11-24T21:14:05.930Z,11.60
2022-11-24T21:16:35.809Z,7.80
2022-11-24T21:19:05.852Z,9.13
2022-11-24T21:21:36.424Z,10.27
2022-11-24T21:24:06.256Z,9.75
2022-11-24T21:26:38.355Z,8.10
2022-11-24T21:29:08.966Z,7.60
2022-11-24T21:31:38.746Z,9.75
2022-11-24T21:34:08.339Z,7.80
2022-11-24T21:36:40.685Z,5.50
2022-11-24T21:39:12.189Z,5.90
2022-11-24T21:41:42.730Z,6.63
2022-11-24T21:44:12.871Z,5.05
2022-11-24T21:46:46.128Z,4.20
2022-11-24T21:49:17.689Z,3.88
2022-11-24T21:51:45.866Z,4.55
2022-11-24T21:54:14.089Z,5.80
2022-11-24T21:56:43.642Z,5.30
2022-11-24T21:59:11.869Z,4.65
2022-11-24T22:01:40.118Z,3.70
2022-11-24T22:04:08.337Z,3.42
2022-11-24T22:06:36.687Z,4.65
2022-11-24T22:09:04.876Z,4.97
2022-11-24T22:11:33.059Z,6.63
2022-11-24T22:14:02.647Z,4.50
2022-11-24T22:16:31.028Z,3.92
2022-11-24T22:19:01.707Z,4.22
2022-11-24T22:21:33.366Z,4.75
2022-11-24T22:24:01.949Z,3.75
2022-11-24T22:26:31.033Z,4.03
2022-11-24T22:28:59.824Z,4.35
2022-11-24T22:31:31.059Z,4.18
2022-11-24T22:34:00.434Z,3.15
2022-11-24T22:36:30.863Z,3.78
2022-11-24T22:39:03.042Z,4.10
2022-11-24T22:41:32.664Z,4.18
2022-11-24T22:44:01.021Z,4.13
2022-11-24T22:46:32.455Z,3.95
2022-11-24T22:49:02.121Z,4.55
2022-11-24T22:51:32.483Z,4.22
2022-11-24T22:54:01.772Z,4.18
2022-11-24T22:56:32.339Z,4.63
2022-11-24T22:59:01.123Z,4.70
2022-11-24T23:01:32.146Z,4.40
2022-11-24T23:04:00.515Z,4.57
2022-11-24T23:06:31.079Z,4.35
2022-11-24T23:09:02.128Z,5.38
2022-11-24T23:11:37.417Z,4.13
2022-11-24T23:14:07.068Z,5.15
2022-11-24T23:16:36.900Z,5.28
2022-11-24T23:19:05.757Z,4.70
2022-11-24T23:21:36.007Z,4.43
2022-11-24T23:24:05.444Z,4.55
2022-11-24T23:26:36.120Z,4.30
2022-11-24T23:29:05.004Z,4.97
2022-11-24T23:31:33.307Z,5.00
2022-11-24T23:34:04.484Z,4.80
2022-11-24T23:36:33.803Z,4.73
2022-11-24T23:39:05.901Z,4.85
2022-11-24T23:41:34.437Z,4.47
2022-11-24T23:44:02.619Z,4.78
2022-11-24T23:46:31.309Z,5.15
2022-11-24T23:48:59.641Z,4.70
2022-11-24T23:51:30.706Z,4.28
2022-11-24T23:54:00.000Z,4.57
2022-11-24T23:56:32.372Z,4.68
2022-11-24T23:59:01.253Z,4.40
